utilisation pie
utilisation bar
humidity graph
temperature graph
Station id: aae83c for 2 days

start:   stop:  

day time in temp out temp in RH out RH H quota rule action
2021-05-11 00:25:17 16.0 11.9 57 71 96 h 0
2021-05-11 00:55:29 15.6 11.6 59 72 96 h 0
2021-05-11 01:25:42 15.2 11.2 61 73 94 h 0
2021-05-11 01:55:54 15.0 10.8 62 74 93 t
1
2021-05-11 02:26:06 14.5 10.4 61 75 95 h 0
2021-05-11 02:56:18 14.4 10.0 62 77 94 t
1
2021-05-11 03:26:30 15.7 9.5 56 78 94 h 0
2021-05-11 03:56:43 15.4 9.0 57 79 93 t
1
2021-05-11 04:27:11 13.9 8.7 61 80 95 h 0
2021-05-11 04:57:23 13.9 8.6 61 81 95 h 0
2021-05-11 05:27:35 13.7 8.8 63 82 96 h 0
2021-05-11 05:57:47 13.5 9.3 63 82 100 h 0
2021-05-11 06:27:59 14.7 9.8 59 82 102 h 0
2021-05-11 06:58:12 15.1 10.7 57 80 106 h 0
2021-05-11 07:28:44 13.9 12.1 61 78 114 h 0
2021-05-11 07:58:56 13.5 13.7 63 76 122 h 0
2021-05-11 08:29:22 13.4 15.5 64 73 130 h 0
2021-05-11 08:59:34 13.3 16.8 64 71 137 h 0
2021-05-11 09:29:46 14.2 18.3 62 68 141 h 0
2021-05-11 09:59:58 14.8 19.3 59 65 143 h 0
2021-05-11 10:30:35 14.3 20.1 61 64 147 h 0
2021-05-11 11:00:47 14.2 20.8 63 63 149 h 0
2021-05-11 11:30:59 14.2 21.7 63 60 149 h 0
2021-05-11 12:01:11 14.6 22.4 62 58 148 h 0
2021-05-11 12:31:24 18.1 23.1 57 56 132 h 0
2021-05-11 13:01:36 19.9 23.7 51 55 134 h 0
2021-05-11 13:31:50 20.7 24.3 48 52 132 h 0
2021-05-11 14:02:02 21.0 24.3 47 51 131 h 0
2021-05-11 14:32:15 22.6 24.2 42 49 127 h 0
2021-05-11 15:02:27 24.0 24.1 41 49 121 h 0
2021-05-11 15:32:39 24.0 24.4 41 48 119 h 0
2021-05-11 16:02:51 24.1 24.2 41 47 114 h 0
2021-05-11 16:33:05 23.6 23.6 43 48 113 h 0
2021-05-11 17:03:17 21.4 22.3 48 51 111 h 0
2021-05-11 17:33:29 20.7 21.8 51 52 110 h 0
2021-05-11 18:03:42 20.1 20.8 52 53 105 h 0
2021-05-11 18:33:54 19.8 19.9 53 55 104 h 0
2021-05-11 19:04:06 19.4 18.7 54 58 103 h 0
2021-05-11 19:34:19 20.7 18.2 50 59 102 h 0
2021-05-11 20:04:31 21.4 17.4 47 60 100 h 0
2021-05-11 20:34:43 20.7 16.4 49 61 98 h 0
2021-05-11 21:04:55 19.4 15.4 52 63 95 h 0
2021-05-11 21:35:08 18.6 14.5 54 66 96 h 0
2021-05-11 22:05:20 18.4 13.7 55 68 94 t
1
2021-05-11 22:35:32 19.5 12.8 50 70 94 g 0
2021-05-11 23:05:45 20.2 12.1 48 71 91 g 0
2021-05-11 23:35:57 19.8 11.5 49 73 90 g 0
2021-05-12 00:06:09 18.6 11.0 52 74 89 t
1
2021-05-12 00:36:21 16.8 10.8 56 75 92 t
1
2021-05-12 01:06:33 16.3 10.5 56 76 94 h 0
2021-05-12 01:36:46 16.2 10.2 57 77 93 t
1
2021-05-12 02:06:58 15.6 9.9 57 77 95 h 0
2021-05-12 02:37:10 15.6 9.9 58 78 95 h 0
2021-05-12 03:07:22 15.4 9.8 59 78 94 t
1
2021-05-12 03:37:35 15.6 9.8 56 78 97 h 0
2021-05-12 04:07:47 16.8 9.7 52 79 97 h 0
2021-05-12 04:38:33 15.5 9.7 57 79 97 h 0
2021-05-12 05:08:45 14.9 9.7 59 80 98 h 0
2021-05-12 05:38:57 14.8 10.2 59 79 100 h 0
2021-05-12 06:09:10 14.8 10.8 59 78 102 h 0
2021-05-12 06:39:22 17.0 11.7 53 76 104 h 0
2021-05-12 07:09:39 18.0 13.1 50 72 107 h 0
2021-05-12 07:39:51 16.2 14.2 55 68 110 h 0
2021-05-12 08:10:03 15.2 15.3 58 64 111 h 0
2021-05-12 08:40:16 15.0 16.0 59 61 110 h 0


2021-05-12 09:56:29 CEST